sensor_id;sensor_type;location;lat;lon;timestamp;P1;durP1;ratioP1;P2;durP2;ratioP2
36291;SDS011;22327;51.208;6.418;2023-03-14T00:01:18;5.03;;;1.30;;
36291;SDS011;22327;51.208;6.418;2023-03-14T00:03:45;3.08;;;1.30;;
36291;SDS011;22327;51.208;6.418;2023-03-14T00:06:11;4.45;;;1.00;;
36291;SDS011;22327;51.208;6.418;2023-03-14T00:08:38;6.20;;;1.63;;
36291;SDS011;22327;51.208;6.418;2023-03-14T00:11:14;8.07;;;1.55;;
36291;SDS011;22327;51.208;6.418;2023-03-14T00:13:46;5.75;;;1.00;;
36291;SDS011;22327;51.208;6.418;2023-03-14T00:16:15;4.45;;;0.77;;
36291;SDS011;22327;51.208;6.418;2023-03-14T00:18:41;5.85;;;1.00;;
36291;SDS011;22327;51.208;6.418;2023-03-14T00:21:07;2.00;;;0.75;;
36291;SDS011;22327;51.208;6.418;2023-03-14T00:23:35;3.60;;;1.15;;
36291;SDS011;22327;51.208;6.418;2023-03-14T00:26:02;3.42;;;0.82;;
36291;SDS011;22327;51.208;6.418;2023-03-14T00:28:30;4.97;;;0.60;;
36291;SDS011;22327;51.208;6.418;2023-03-14T00:30:56;1.75;;;0.50;;
36291;SDS011;22327;51.208;6.418;2023-03-14T00:33:22;3.58;;;0.70;;
36291;SDS011;22327;51.208;6.418;2023-03-14T00:35:58;5.45;;;0.82;;
36291;SDS011;22327;51.208;6.418;2023-03-14T00:38:29;6.03;;;1.33;;
36291;SDS011;22327;51.208;6.418;2023-03-14T00:40:55;6.00;;;0.95;;
36291;SDS011;22327;51.208;6.418;2023-03-14T00:43:21;3.53;;;0.68;;
36291;SDS011;22327;51.208;6.418;2023-03-14T00:45:51;2.90;;;0.77;;
36291;SDS011;22327;51.208;6.418;2023-03-14T00:48:17;6.05;;;0.90;;
36291;SDS011;22327;51.208;6.418;2023-03-14T00:50:44;3.78;;;0.70;;
36291;SDS011;22327;51.208;6.418;2023-03-14T00:53:10;5.65;;;0.80;;
36291;SDS011;22327;51.208;6.418;2023-03-14T00:55:37;4.70;;;0.73;;
36291;SDS011;22327;51.208;6.418;2023-03-14T00:58:03;6.03;;;0.82;;
36291;SDS011;22327;51.208;6.418;2023-03-14T01:00:28;1.88;;;0.50;;
36291;SDS011;22327;51.208;6.418;2023-03-14T01:02:54;2.47;;;0.50;;
36291;SDS011;22327;51.208;6.418;2023-03-14T01:05:21;4.35;;;0.68;;
36291;SDS011;22327;51.208;6.418;2023-03-14T01:07:47;3.15;;;0.88;;
36291;SDS011;22327;51.208;6.418;2023-03-14T01:10:13;5.85;;;0.70;;
36291;SDS011;22327;51.208;6.418;2023-03-14T01:12:38;6.78;;;0.95;;
36291;SDS011;22327;51.208;6.418;2023-03-14T01:15:04;4.03;;;0.60;;
36291;SDS011;22327;51.208;6.418;2023-03-14T01:17:30;2.63;;;0.90;;
36291;SDS011;22327;51.208;6.418;2023-03-14T01:19:56;4.40;;;0.80;;
36291;SDS011;22327;51.208;6.418;2023-03-14T01:22:21;4.93;;;1.15;;
36291;SDS011;22327;51.208;6.418;2023-03-14T01:24:47;7.30;;;1.38;;
36291;SDS011;22327;51.208;6.418;2023-03-14T01:27:12;5.35;;;1.00;;
36291;SDS011;22327;51.208;6.418;2023-03-14T01:29:38;6.18;;;0.90;;
36291;SDS011;22327;51.208;6.418;2023-03-14T01:32:04;2.53;;;0.82;;
36291;SDS011;22327;51.208;6.418;2023-03-14T01:34:29;4.40;;;0.80;;
36291;SDS011;22327;51.208;6.418;2023-03-14T01:36:55;4.85;;;1.45;;
36291;SDS011;22327;51.208;6.418;2023-03-14T01:39:20;4.40;;;0.75;;
36291;SDS011;22327;51.208;6.418;2023-03-14T01:41:46;2.78;;;0.70;;
36291;SDS011;22327;51.208;6.418;2023-03-14T01:44:12;3.78;;;0.85;;
36291;SDS011;22327;51.208;6.418;2023-03-14T01:46:39;5.68;;;0.95;;
36291;SDS011;22327;51.208;6.418;2023-03-14T01:49:24;10.60;;;2.33;;
36291;SDS011;22327;51.208;6.418;2023-03-14T01:52:10;5.63;;;1.15;;
36291;SDS011;22327;51.208;6.418;2023-03-14T01:54:50;4.78;;;0.77;;
36291;SDS011;22327;51.208;6.418;2023-03-14T01:57:24;7.25;;;0.90;;
36291;SDS011;22327;51.208;6.418;2023-03-14T02:00:00;6.60;;;1.23;;
36291;SDS011;22327;51.208;6.418;2023-03-14T02:02:36;5.65;;;0.90;;
36291;SDS011;22327;51.208;6.418;2023-03-14T02:05:03;4.68;;;1.13;;
36291;SDS011;22327;51.208;6.418;2023-03-14T02:07:33;7.07;;;1.08;;
36291;SDS011;22327;51.208;6.418;2023-03-14T02:10:24;6.03;;;1.42;;
36291;SDS011;22327;51.208;6.418;2023-03-14T02:12:54;3.97;;;0.90;;
36291;SDS011;22327;51.208;6.418;2023-03-14T02:15:21;5.65;;;1.50;;
36291;SDS011;22327;51.208;6.418;2023-03-14T02:17:48;6.07;;;1.10;;
36291;SDS011;22327;51.208;6.418;2023-03-14T02:20:24;5.80;;;1.10;;
36291;SDS011;22327;51.208;6.418;2023-03-14T02:23:09;4.60;;;1.52;;
36291;SDS011;22327;51.208;6.418;2023-03-14T02:25:55;4.68;;;1.73;;
36291;SDS011;22327;51.208;6.418;2023-03-14T02:28:26;8.18;;;0.95;;
36291;SDS011;22327;51.208;6.418;2023-03-14T02:30:51;5.22;;;0.85;;
36291;SDS011;22327;51.208;6.418;2023-03-14T02:33:18;9.32;;;1.20;;
36291;SDS011;22327;51.208;6.418;2023-03-14T02:40:58;6.88;;;1.77;;
36291;SDS011;22327;51.208;6.418;2023-03-14T02:43:23;4.15;;;1.15;;
36291;SDS011;22327;51.208;6.418;2023-03-14T02:45:50;4.32;;;0.90;;
36291;SDS011;22327;51.208;6.418;2023-03-14T02:48:18;4.80;;;0.80;;
36291;SDS011;22327;51.208;6.418;2023-03-14T02:51:03;6.10;;;1.33;;
36291;SDS011;22327;51.208;6.418;2023-03-14T02:53:30;6.68;;;0.80;;
36291;SDS011;22327;51.208;6.418;2023-03-14T02:55:57;8.50;;;1.30;;
36291;SDS011;22327;51.208;6.418;2023-03-14T02:58:23;7.35;;;1.27;;
36291;SDS011;22327;51.208;6.418;2023-03-14T03:00:49;4.68;;;0.75;;
36291;SDS011;22327;51.208;6.418;2023-03-14T03:03:15;8.02;;;1.33;;
36291;SDS011;22327;51.208;6.418;2023-03-14T03:05:41;5.38;;;1.00;;
36291;SDS011;22327;51.208;6.418;2023-03-14T03:08:10;3.05;;;0.80;;
36291;SDS011;22327;51.208;6.418;2023-03-14T03:10:36;5.65;;;0.88;;
36291;SDS011;22327;51.208;6.418;2023-03-14T03:13:01;4.93;;;0.95;;
36291;SDS011;22327;51.208;6.418;2023-03-14T03:15:27;5.55;;;0.82;;
36291;SDS011;22327;51.208;6.418;2023-03-14T03:17:53;8.93;;;1.10;;
36291;SDS011;22327;51.208;6.418;2023-03-14T03:20:18;5.45;;;1.10;;
36291;SDS011;22327;51.208;6.418;2023-03-14T03:22:44;4.50;;;1.25;;
36291;SDS011;22327;51.208;6.418;2023-03-14T03:25:09;5.47;;;1.10;;
36291;SDS011;22327;51.208;6.418;2023-03-14T03:27:36;5.93;;;1.13;;
36291;SDS011;22327;51.208;6.418;2023-03-14T03:30:03;7.70;;;0.98;;
36291;SDS011;22327;51.208;6.418;2023-03-14T03:32:30;9.93;;;1.20;;
36291;SDS011;22327;51.208;6.418;2023-03-14T03:34:55;7.40;;;1.10;;
36291;SDS011;22327;51.208;6.418;2023-03-14T03:37:21;5.07;;;0.90;;
36291;SDS011;22327;51.208;6.418;2023-03-14T03:39:47;3.83;;;0.90;;
36291;SDS011;22327;51.208;6.418;2023-03-14T03:42:14;5.90;;;0.90;;
36291;SDS011;22327;51.208;6.418;2023-03-14T03:44:40;8.43;;;0.88;;
36291;SDS011;22327;51.208;6.418;2023-03-14T03:47:05;6.47;;;1.00;;
36291;SDS011;22327;51.208;6.418;2023-03-14T03:49:31;6.95;;;1.17;;
36291;SDS011;22327;51.208;6.418;2023-03-14T03:51:57;3.70;;;0.50;;
36291;SDS011;22327;51.208;6.418;2023-03-14T03:54:23;4.80;;;0.80;;
36291;SDS011;22327;51.208;6.418;2023-03-14T03:56:48;3.92;;;0.57;;
36291;SDS011;22327;51.208;6.418;2023-03-14T03:59:14;5.88;;;0.82;;
36291;SDS011;22327;51.208;6.418;2023-03-14T04:01:39;2.20;;;0.57;;
36291;SDS011;22327;51.208;6.418;2023-03-14T04:04:05;3.47;;;0.60;;
36291;SDS011;22327;51.208;6.418;2023-03-14T04:06:31;2.28;;;0.50;;
36291;SDS011;22327;51.208;6.418;2023-03-14T04:08:56;2.58;;;0.50;;
36291;SDS011;22327;51.208;6.418;2023-03-14T04:11:22;3.33;;;0.70;;
36291;SDS011;22327;51.208;6.418;2023-03-14T04:13:48;4.68;;;0.80;;
36291;SDS011;22327;51.208;6.418;2023-03-14T04:16:14;4.88;;;0.60;;
36291;SDS011;22327;51.208;6.418;2023-03-14T04:18:42;4.07;;;0.68;;
36291;SDS011;22327;51.208;6.418;2023-03-14T04:21:08;3.20;;;0.70;;
36291;SDS011;22327;51.208;6.418;2023-03-14T04:23:33;5.50;;;0.60;;
36291;SDS011;22327;51.208;6.418;2023-03-14T04:25:59;3.40;;;1.17;;
36291;SDS011;22327;51.208;6.418;2023-03-14T04:28:24;1.77;;;0.60;;
36291;SDS011;22327;51.208;6.418;2023-03-14T04:30:50;3.20;;;0.47;;
36291;SDS011;22327;51.208;6.418;2023-03-14T04:33:16;2.45;;;0.50;;
36291;SDS011;22327;51.208;6.418;2023-03-14T04:35:42;1.58;;;0.40;;
36291;SDS011;22327;51.208;6.418;2023-03-14T04:38:09;1.27;;;0.50;;
36291;SDS011;22327;51.208;6.418;2023-03-14T04:40:38;2.17;;;0.60;;
36291;SDS011;22327;51.208;6.418;2023-03-14T04:43:09;3.70;;;0.50;;
36291;SDS011;22327;51.208;6.418;2023-03-14T04:45:36;3.75;;;0.82;;
36291;SDS011;22327;51.208;6.418;2023-03-14T04:48:01;3.53;;;0.70;;
36291;SDS011;22327;51.208;6.418;2023-03-14T04:50:27;3.05;;;1.23;;
36291;SDS011;22327;51.208;6.418;2023-03-14T04:52:53;3.13;;;0.68;;
36291;SDS011;22327;51.208;6.418;2023-03-14T04:55:18;5.82;;;1.20;;
36291;SDS011;22327;51.208;6.418;2023-03-14T04:57:44;2.85;;;0.90;;
36291;SDS011;22327;51.208;6.418;2023-03-14T05:00:09;3.63;;;1.05;;
36291;SDS011;22327;51.208;6.418;2023-03-14T05:02:35;4.10;;;0.63;;
36291;SDS011;22327;51.208;6.418;2023-03-14T05:05:01;3.05;;;0.90;;
36291;SDS011;22327;51.208;6.418;2023-03-14T05:07:27;1.83;;;0.70;;
36291;SDS011;22327;51.208;6.418;2023-03-14T05:09:52;5.57;;;0.95;;
36291;SDS011;22327;51.208;6.418;2023-03-14T05:12:18;3.35;;;0.80;;
36291;SDS011;22327;51.208;6.418;2023-03-14T05:14:45;2.90;;;0.90;;
36291;SDS011;22327;51.208;6.418;2023-03-14T05:17:10;3.70;;;0.80;;
36291;SDS011;22327;51.208;6.418;2023-03-14T05:19:36;1.58;;;0.50;;
36291;SDS011;22327;51.208;6.418;2023-03-14T05:22:02;2.30;;;0.50;;
36291;SDS011;22327;51.208;6.418;2023-03-14T05:24:27;3.85;;;0.50;;
36291;SDS011;22327;51.208;6.418;2023-03-14T05:26:53;1.98;;;0.30;;
36291;SDS011;22327;51.208;6.418;2023-03-14T05:29:19;0.88;;;0.30;;
36291;SDS011;22327;51.208;6.418;2023-03-14T05:31:44;2.58;;;0.45;;
36291;SDS011;22327;51.208;6.418;2023-03-14T05:34:10;2.35;;;0.55;;
36291;SDS011;22327;51.208;6.418;2023-03-14T05:36:35;0.75;;;0.43;;
36291;SDS011;22327;51.208;6.418;2023-03-14T05:39:01;0.63;;;0.30;;
36291;SDS011;22327;51.208;6.418;2023-03-14T05:41:26;0.50;;;0.30;;
36291;SDS011;22327;51.208;6.418;2023-03-14T05:43:52;1.42;;;0.35;;
36291;SDS011;22327;51.208;6.418;2023-03-14T05:46:17;0.55;;;0.30;;
36291;SDS011;22327;51.208;6.418;2023-03-14T05:48:43;0.65;;;0.35;;
36291;SDS011;22327;51.208;6.418;2023-03-14T05:51:08;1.95;;;0.50;;
36291;SDS011;22327;51.208;6.418;2023-03-14T05:53:34;1.40;;;0.30;;
36291;SDS011;22327;51.208;6.418;2023-03-14T05:55:59;1.65;;;0.30;;
36291;SDS011;22327;51.208;6.418;2023-03-14T05:58:25;1.20;;;0.40;;
36291;SDS011;22327;51.208;6.418;2023-03-14T06:00:50;1.95;;;0.30;;
36291;SDS011;22327;51.208;6.418;2023-03-14T06:03:16;0.57;;;0.20;;
36291;SDS011;22327;51.208;6.418;2023-03-14T06:05:42;0.50;;;0.20;;
36291;SDS011;22327;51.208;6.418;2023-03-14T06:08:07;0.22;;;0.20;;
36291;SDS011;22327;51.208;6.418;2023-03-14T06:10:34;0.73;;;0.20;;
36291;SDS011;22327;51.208;6.418;2023-03-14T06:13:00;0.65;;;0.28;;
36291;SDS011;22327;51.208;6.418;2023-03-14T06:15:26;0.30;;;0.20;;
36291;SDS011;22327;51.208;6.418;2023-03-14T06:17:53;2.15;;;0.55;;
36291;SDS011;22327;51.208;6.418;2023-03-14T06:20:20;0.63;;;0.20;;
36291;SDS011;22327;51.208;6.418;2023-03-14T06:22:45;0.98;;;0.17;;
36291;SDS011;22327;51.208;6.418;2023-03-14T06:25:11;2.10;;;0.20;;
36291;SDS011;22327;51.208;6.418;2023-03-14T06:27:36;0.20;;;0.20;;
36291;SDS011;22327;51.208;6.418;2023-03-14T06:30:02;0.47;;;0.10;;
36291;SDS011;22327;51.208;6.418;2023-03-14T06:32:28;0.95;;;0.20;;
36291;SDS011;22327;51.208;6.418;2023-03-14T06:34:53;1.02;;;0.10;;
36291;SDS011;22327;51.208;6.418;2023-03-14T06:37:19;0.20;;;0.20;;
36291;SDS011;22327;51.208;6.418;2023-03-14T06:39:45;0.50;;;0.10;;
36291;SDS011;22327;51.208;6.418;2023-03-14T06:42:10;0.55;;;0.20;;
36291;SDS011;22327;51.208;6.418;2023-03-14T06:44:36;0.20;;;0.10;;
36291;SDS011;22327;51.208;6.418;2023-03-14T06:47:01;0.55;;;0.20;;
36291;SDS011;22327;51.208;6.418;2023-03-14T06:49:27;0.70;;;0.40;;
36291;SDS011;22327;51.208;6.418;2023-03-14T06:51:52;1.45;;;0.32;;
36291;SDS011;22327;51.208;6.418;2023-03-14T06:54:18;1.20;;;0.30;;
36291;SDS011;22327;51.208;6.418;2023-03-14T06:56:43;0.75;;;0.30;;
36291;SDS011;22327;51.208;6.418;2023-03-14T06:59:09;0.38;;;0.30;;
36291;SDS011;22327;51.208;6.418;2023-03-14T07:01:34;0.50;;;0.40;;
36291;SDS011;22327;51.208;6.418;2023-03-14T07:04:00;2.08;;;0.50;;
36291;SDS011;22327;51.208;6.418;2023-03-14T07:06:26;1.35;;;0.43;;
36291;SDS011;22327;51.208;6.418;2023-03-14T07:08:54;0.85;;;0.30;;
36291;SDS011;22327;51.208;6.418;2023-03-14T07:11:20;0.32;;;0.30;;
36291;SDS011;22327;51.208;6.418;2023-03-14T07:13:45;1.48;;;0.40;;
36291;SDS011;22327;51.208;6.418;2023-03-14T07:16:11;0.40;;;0.40;;
36291;SDS011;22327;51.208;6.418;2023-03-14T07:18:36;1.48;;;0.57;;
36291;SDS011;22327;51.208;6.418;2023-03-14T07:21:02;2.88;;;0.60;;
36291;SDS011;22327;51.208;6.418;2023-03-14T07:23:28;1.85;;;0.50;;
36291;SDS011;22327;51.208;6.418;2023-03-14T07:25:55;1.05;;;0.50;;
36291;SDS011;22327;51.208;6.418;2023-03-14T07:28:21;1.00;;;0.60;;
36291;SDS011;22327;51.208;6.418;2023-03-14T07:30:48;1.65;;;0.70;;
36291;SDS011;22327;51.208;6.418;2023-03-14T07:33:14;1.20;;;0.47;;
36291;SDS011;22327;51.208;6.418;2023-03-14T07:35:39;2.38;;;0.60;;
36291;SDS011;22327;51.208;6.418;2023-03-14T07:38:05;8.90;;;1.58;;
36291;SDS011;22327;51.208;6.418;2023-03-14T07:40:31;2.50;;;1.38;;
36291;SDS011;22327;51.208;6.418;2023-03-14T07:42:56;2.03;;;0.80;;
36291;SDS011;22327;51.208;6.418;2023-03-14T07:45:22;2.08;;;1.00;;
36291;SDS011;22327;51.208;6.418;2023-03-14T07:47:48;1.25;;;0.80;;
36291;SDS011;22327;51.208;6.418;2023-03-14T07:50:13;0.60;;;0.60;;
36291;SDS011;22327;51.208;6.418;2023-03-14T07:52:39;1.42;;;0.73;;
36291;SDS011;22327;51.208;6.418;2023-03-14T07:55:04;1.15;;;0.80;;
36291;SDS011;22327;51.208;6.418;2023-03-14T07:57:30;2.63;;;0.70;;
36291;SDS011;22327;51.208;6.418;2023-03-14T07:59:56;0.98;;;0.90;;
36291;SDS011;22327;51.208;6.418;2023-03-14T08:02:21;1.98;;;0.80;;
36291;SDS011;22327;51.208;6.418;2023-03-14T08:04:49;1.15;;;0.75;;
36291;SDS011;22327;51.208;6.418;2023-03-14T08:07:14;2.15;;;0.70;;
36291;SDS011;22327;51.208;6.418;2023-03-14T08:09:40;2.20;;;1.27;;
36291;SDS011;22327;51.208;6.418;2023-03-14T08:12:06;1.00;;;0.88;;
36291;SDS011;22327;51.208;6.418;2023-03-14T08:14:32;2.00;;;0.70;;
36291;SDS011;22327;51.208;6.418;2023-03-14T08:16:57;0.90;;;0.60;;
36291;SDS011;22327;51.208;6.418;2023-03-14T08:19:23;1.95;;;0.77;;
36291;SDS011;22327;51.208;6.418;2023-03-14T08:21:49;1.05;;;0.90;;
36291;SDS011;22327;51.208;6.418;2023-03-14T08:24:14;0.80;;;0.80;;
36291;SDS011;22327;51.208;6.418;2023-03-14T08:26:40;3.50;;;1.02;;
36291;SDS011;22327;51.208;6.418;2023-03-14T08:29:06;1.23;;;0.85;;
36291;SDS011;22327;51.208;6.418;2023-03-14T08:31:33;2.40;;;0.90;;
36291;SDS011;22327;51.208;6.418;2023-03-14T08:33:59;0.80;;;0.80;;
36291;SDS011;22327;51.208;6.418;2023-03-14T08:36:25;1.92;;;0.90;;
36291;SDS011;22327;51.208;6.418;2023-03-14T08:38:51;1.58;;;1.02;;
36291;SDS011;22327;51.208;6.418;2023-03-14T08:41:16;1.42;;;0.90;;
36291;SDS011;22327;51.208;6.418;2023-03-14T08:43:42;0.82;;;0.82;;
36291;SDS011;22327;51.208;6.418;2023-03-14T08:46:07;2.22;;;1.00;;
36291;SDS011;22327;51.208;6.418;2023-03-14T08:48:33;2.92;;;1.00;;
36291;SDS011;22327;51.208;6.418;2023-03-14T08:51:08;2.25;;;0.90;;
36291;SDS011;22327;51.208;6.418;2023-03-14T08:53:35;1.85;;;0.90;;
36291;SDS011;22327;51.208;6.418;2023-03-14T08:56:01;2.05;;;0.82;;
36291;SDS011;22327;51.208;6.418;2023-03-14T08:58:28;0.70;;;0.50;;
36291;SDS011;22327;51.208;6.418;2023-03-14T09:00:54;1.05;;;0.20;;
36291;SDS011;22327;51.208;6.418;2023-03-14T09:03:19;0.45;;;0.20;;
36291;SDS011;22327;51.208;6.418;2023-03-14T09:05:47;0.10;;;0.10;;
36291;SDS011;22327;51.208;6.418;2023-03-14T09:08:14;0.20;;;0.20;;
36291;SDS011;22327;51.208;6.418;2023-03-14T09:10:39;0.30;;;0.30;;
36291;SDS011;22327;51.208;6.418;2023-03-14T09:13:05;3.25;;;0.20;;
36291;SDS011;22327;51.208;6.418;2023-03-14T09:15:30;0.57;;;0.30;;
36291;SDS011;22327;51.208;6.418;2023-03-14T09:17:56;1.27;;;0.40;;
36291;SDS011;22327;51.208;6.418;2023-03-14T09:20:22;2.30;;;0.30;;
36291;SDS011;22327;51.208;6.418;2023-03-14T09:22:47;0.38;;;0.30;;
36291;SDS011;22327;51.208;6.418;2023-03-14T09:25:13;1.60;;;0.30;;
36291;SDS011;22327;51.208;6.418;2023-03-14T09:27:39;3.20;;;0.50;;
36291;SDS011;22327;51.208;6.418;2023-03-14T09:30:05;1.55;;;0.50;;
36291;SDS011;22327;51.208;6.418;2023-03-14T09:32:31;0.68;;;0.63;;
36291;SDS011;22327;51.208;6.418;2023-03-14T09:34:57;1.30;;;0.82;;
36291;SDS011;22327;51.208;6.418;2023-03-14T09:37:22;1.33;;;1.00;;
36291;SDS011;22327;51.208;6.418;2023-03-14T09:39:48;2.25;;;1.17;;
36291;SDS011;22327;51.208;6.418;2023-03-14T09:42:14;1.80;;;1.20;;
36291;SDS011;22327;51.208;6.418;2023-03-14T09:44:51;1.85;;;1.20;;
36291;SDS011;22327;51.208;6.418;2023-03-14T09:47:24;2.00;;;1.00;;
36291;SDS011;22327;51.208;6.418;2023-03-14T09:49:51;1.50;;;0.90;;
36291;SDS011;22327;51.208;6.418;2023-03-14T09:52:19;0.90;;;0.80;;
36291;SDS011;22327;51.208;6.418;2023-03-14T09:54:52;1.00;;;0.80;;
36291;SDS011;22327;51.208;6.418;2023-03-14T09:57:23;0.93;;;0.80;;
36291;SDS011;22327;51.208;6.418;2023-03-14T09:59:50;0.80;;;0.80;;
36291;SDS011;22327;51.208;6.418;2023-03-14T10:02:20;1.00;;;0.70;;
36291;SDS011;22327;51.208;6.418;2023-03-14T10:04:48;2.63;;;0.70;;
36291;SDS011;22327;51.208;6.418;2023-03-14T10:07:15;1.73;;;0.70;;
36291;SDS011;22327;51.208;6.418;2023-03-14T10:09:45;1.27;;;0.80;;
36291;SDS011;22327;51.208;6.418;2023-03-14T10:12:13;2.78;;;1.02;;
36291;SDS011;22327;51.208;6.418;2023-03-14T10:14:44;1.30;;;1.00;;
36291;SDS011;22327;51.208;6.418;2023-03-14T10:17:19;1.88;;;1.50;;
36291;SDS011;22327;51.208;6.418;2023-03-14T10:22:22;2.72;;;1.55;;
36291;SDS011;22327;51.208;6.418;2023-03-14T10:24:51;3.03;;;1.60;;
36291;SDS011;22327;51.208;6.418;2023-03-14T10:27:20;4.55;;;2.30;;
36291;SDS011;22327;51.208;6.418;2023-03-14T10:29:54;1.55;;;1.38;;
36291;SDS011;22327;51.208;6.418;2023-03-14T10:32:42;2.22;;;1.00;;
36291;SDS011;22327;51.208;6.418;2023-03-14T10:35:20;4.13;;;0.80;;
36291;SDS011;22327;51.208;6.418;2023-03-14T10:37:48;2.17;;;0.85;;
36291;SDS011;22327;51.208;6.418;2023-03-14T10:40:15;1.20;;;0.75;;
36291;SDS011;22327;51.208;6.418;2023-03-14T10:42:43;0.82;;;0.82;;
36291;SDS011;22327;51.208;6.418;2023-03-14T10:45:31;2.50;;;0.77;;
36291;SDS011;22327;51.208;6.418;2023-03-14T10:47:58;2.13;;;1.02;;
36291;SDS011;22327;51.208;6.418;2023-03-14T10:50:31;0.63;;;0.40;;
36291;SDS011;22327;51.208;6.418;2023-03-14T10:52:57;2.65;;;0.93;;
36291;SDS011;22327;51.208;6.418;2023-03-14T10:58:16;1.38;;;0.40;;
36291;SDS011;22327;51.208;6.418;2023-03-14T11:01:17;3.15;;;0.60;;
36291;SDS011;22327;51.208;6.418;2023-03-14T11:07:03;0.63;;;0.40;;
36291;SDS011;22327;51.208;6.418;2023-03-14T11:12:15;1.17;;;1.08;;
36291;SDS011;22327;51.208;6.418;2023-03-14T11:15:09;1.73;;;0.60;;
36291;SDS011;22327;51.208;6.418;2023-03-14T11:23:23;1.25;;;0.70;;
36291;SDS011;22327;51.208;6.418;2023-03-14T11:26:01;3.72;;;0.98;;
36291;SDS011;22327;51.208;6.418;2023-03-14T11:29:11;1.40;;;0.40;;
36291;SDS011;22327;51.208;6.418;2023-03-14T11:31:57;1.48;;;0.80;;
36291;SDS011;22327;51.208;6.418;2023-03-14T11:35:11;2.30;;;0.80;;
36291;SDS011;22327;51.208;6.418;2023-03-14T11:37:26;2.05;;;0.70;;
36291;SDS011;22327;51.208;6.418;2023-03-14T11:39:59;0.60;;;0.47;;
36291;SDS011;22327;51.208;6.418;2023-03-14T11:42:35;2.00;;;0.40;;
36291;SDS011;22327;51.208;6.418;2023-03-14T11:45:02;1.55;;;0.30;;
36291;SDS011;22327;51.208;6.418;2023-03-14T11:47:48;1.83;;;0.30;;
36291;SDS011;22327;51.208;6.418;2023-03-14T11:50:31;0.50;;;0.20;;
36291;SDS011;22327;51.208;6.418;2023-03-14T11:53:02;2.25;;;0.30;;
36291;SDS011;22327;51.208;6.418;2023-03-14T11:55:39;0.50;;;0.22;;
36291;SDS011;22327;51.208;6.418;2023-03-14T11:58:15;2.05;;;0.45;;
36291;SDS011;22327;51.208;6.418;2023-03-14T12:00:41;4.35;;;0.40;;
36291;SDS011;22327;51.208;6.418;2023-03-14T12:03:13;0.95;;;0.38;;
36291;SDS011;22327;51.208;6.418;2023-03-14T12:11:08;2.70;;;0.28;;
36291;SDS011;22327;51.208;6.418;2023-03-14T12:13:49;2.38;;;0.60;;
36291;SDS011;22327;51.208;6.418;2023-03-14T12:18:47;2.05;;;0.60;;
36291;SDS011;22327;51.208;6.418;2023-03-14T12:21:13;3.38;;;0.55;;
36291;SDS011;22327;51.208;6.418;2023-03-14T12:23:48;2.15;;;0.60;;
36291;SDS011;22327;51.208;6.418;2023-03-14T12:26:22;3.08;;;0.63;;
36291;SDS011;22327;51.208;6.418;2023-03-14T12:36:55;3.75;;;0.70;;
36291;SDS011;22327;51.208;6.418;2023-03-14T12:42:37;3.45;;;1.00;;
36291;SDS011;22327;51.208;6.418;2023-03-14T12:50:26;7.40;;;1.20;;
36291;SDS011;22327;51.208;6.418;2023-03-14T12:53:10;5.13;;;0.73;;
36291;SDS011;22327;51.208;6.418;2023-03-14T12:58:47;4.75;;;0.75;;
36291;SDS011;22327;51.208;6.418;2023-03-14T13:01:24;4.05;;;0.60;;
36291;SDS011;22327;51.208;6.418;2023-03-14T13:03:54;5.20;;;0.63;;
36291;SDS011;22327;51.208;6.418;2023-03-14T13:06:47;7.95;;;1.83;;
36291;SDS011;22327;51.208;6.418;2023-03-14T13:12:03;4.97;;;1.10;;
36291;SDS011;22327;51.208;6.418;2023-03-14T13:14:41;4.47;;;0.98;;
36291;SDS011;22327;51.208;6.418;2023-03-14T13:19:41;8.30;;;1.20;;
36291;SDS011;22327;51.208;6.418;2023-03-14T13:22:22;6.65;;;0.95;;
36291;SDS011;22327;51.208;6.418;2023-03-14T13:24:50;6.50;;;0.90;;
36291;SDS011;22327;51.208;6.418;2023-03-14T13:27:29;7.22;;;1.13;;
36291;SDS011;22327;51.208;6.418;2023-03-14T13:29:56;7.00;;;1.20;;
36291;SDS011;22327;51.208;6.418;2023-03-14T13:32:26;6.57;;;1.05;;
36291;SDS011;22327;51.208;6.418;2023-03-14T13:34:56;8.13;;;1.30;;
36291;SDS011;22327;51.208;6.418;2023-03-14T13:37:23;6.90;;;1.35;;
36291;SDS011;22327;51.208;6.418;2023-03-14T13:39:51;7.47;;;1.30;;
36291;SDS011;22327;51.208;6.418;2023-03-14T13:42:20;6.65;;;0.98;;
36291;SDS011;22327;51.208;6.418;2023-03-14T13:44:49;9.35;;;1.45;;
36291;SDS011;22327;51.208;6.418;2023-03-14T13:47:18;9.00;;;1.10;;
36291;SDS011;22327;51.208;6.418;2023-03-14T13:49:46;12.18;;;2.03;;
36291;SDS011;22327;51.208;6.418;2023-03-14T13:52:32;10.02;;;1.45;;
36291;SDS011;22327;51.208;6.418;2023-03-14T13:55:01;7.53;;;1.60;;
36291;SDS011;22327;51.208;6.418;2023-03-14T13:57:48;10.93;;;1.33;;
36291;SDS011;22327;51.208;6.418;2023-03-14T14:00:23;9.20;;;1.40;;
36291;SDS011;22327;51.208;6.418;2023-03-14T14:02:54;10.70;;;2.45;;
36291;SDS011;22327;51.208;6.418;2023-03-14T14:05:21;8.43;;;1.38;;
36291;SDS011;22327;51.208;6.418;2023-03-14T14:07:48;10.23;;;2.03;;
36291;SDS011;22327;51.208;6.418;2023-03-14T14:10:16;13.60;;;2.55;;
36291;SDS011;22327;51.208;6.418;2023-03-14T14:12:52;11.95;;;2.13;;
36291;SDS011;22327;51.208;6.418;2023-03-14T14:15:26;11.50;;;1.70;;
36291;SDS011;22327;51.208;6.418;2023-03-14T14:17:54;8.40;;;1.38;;
36291;SDS011;22327;51.208;6.418;2023-03-14T14:20:34;12.90;;;2.35;;
36291;SDS011;22327;51.208;6.418;2023-03-14T14:23:03;14.05;;;2.00;;
36291;SDS011;22327;51.208;6.418;2023-03-14T14:25:30;9.80;;;2.03;;
36291;SDS011;22327;51.208;6.418;2023-03-14T14:27:56;5.38;;;1.00;;
36291;SDS011;22327;51.208;6.418;2023-03-14T14:30:30;6.20;;;1.17;;
36291;SDS011;22327;51.208;6.418;2023-03-14T14:33:10;8.57;;;1.23;;
36291;SDS011;22327;51.208;6.418;2023-03-14T14:35:50;7.50;;;1.30;;
36291;SDS011;22327;51.208;6.418;2023-03-14T14:38:18;8.25;;;1.63;;
36291;SDS011;22327;51.208;6.418;2023-03-14T14:40:45;8.35;;;1.30;;
36291;SDS011;22327;51.208;6.418;2023-03-14T14:43:15;9.30;;;1.42;;
36291;SDS011;22327;51.208;6.418;2023-03-14T14:45:43;10.30;;;1.23;;
36291;SDS011;22327;51.208;6.418;2023-03-14T14:48:12;5.22;;;0.95;;
36291;SDS011;22327;51.208;6.418;2023-03-14T14:50:49;4.57;;;1.10;;
36291;SDS011;22327;51.208;6.418;2023-03-14T14:55:57;6.50;;;1.05;;
36291;SDS011;22327;51.208;6.418;2023-03-14T14:58:28;9.60;;;1.58;;
36291;SDS011;22327;51.208;6.418;2023-03-14T15:01:05;8.05;;;1.25;;
36291;SDS011;22327;51.208;6.418;2023-03-14T15:03:36;4.18;;;0.82;;
36291;SDS011;22327;51.208;6.418;2023-03-14T15:06:02;4.95;;;1.10;;
36291;SDS011;22327;51.208;6.418;2023-03-14T15:08:29;5.55;;;0.93;;
36291;SDS011;22327;51.208;6.418;2023-03-14T15:10:55;4.82;;;1.25;;
36291;SDS011;22327;51.208;6.418;2023-03-14T15:13:21;6.47;;;0.77;;
36291;SDS011;22327;51.208;6.418;2023-03-14T15:15:49;5.72;;;0.60;;
36291;SDS011;22327;51.208;6.418;2023-03-14T15:18:21;5.45;;;1.17;;
36291;SDS011;22327;51.208;6.418;2023-03-14T15:20:48;4.32;;;0.55;;
36291;SDS011;22327;51.208;6.418;2023-03-14T15:23:15;1.92;;;0.50;;
36291;SDS011;22327;51.208;6.418;2023-03-14T15:25:42;5.30;;;0.70;;
36291;SDS011;22327;51.208;6.418;2023-03-14T15:28:14;5.00;;;0.90;;
36291;SDS011;22327;51.208;6.418;2023-03-14T15:30:48;5.22;;;0.80;;
36291;SDS011;22327;51.208;6.418;2023-03-14T15:33:15;3.72;;;0.70;;
36291;SDS011;22327;51.208;6.418;2023-03-14T15:35:41;4.82;;;0.98;;
36291;SDS011;22327;51.208;6.418;2023-03-14T15:38:14;4.95;;;0.85;;
36291;SDS011;22327;51.208;6.418;2023-03-14T15:40:42;2.92;;;0.50;;
36291;SDS011;22327;51.208;6.418;2023-03-14T15:43:07;4.47;;;0.77;;
36291;SDS011;22327;51.208;6.418;2023-03-14T15:45:34;2.60;;;0.80;;
36291;SDS011;22327;51.208;6.418;2023-03-14T15:48:00;3.20;;;0.80;;
36291;SDS011;22327;51.208;6.418;2023-03-14T15:50:25;6.15;;;0.95;;
36291;SDS011;22327;51.208;6.418;2023-03-14T15:52:51;3.97;;;0.82;;
36291;SDS011;22327;51.208;6.418;2023-03-14T15:55:17;3.08;;;0.50;;